LTBU/TEQ METAR and TAF weather

Enter ICAO airport designator
Station Type Date Time Source
LTBU METAR 2022/06/30 12:50 UTC NOAA

LTBU 301250Z 02015KT CAVOK 29/18 Q1013


Station Type Date Time Source
LTBU Decoded METAR 2022/06/30 12:50 UTC NOAA

Corlu, Turkey (LTBU) 41-08N 027-55E
Jun 30, 2022 - 08:50 AM EDT / 2022.06.30 1250 UTC
Wind: from the NNE (020 degrees) at 17 MPH (15 KT):0
Visibility: greater than 7 mile(s):0
Temperature: 84 F (29 C)
Dew Point: 64 F (18 C)
Relative Humidity: 51%
Pressure (altimeter): 29.91 in. Hg (1013 hPa)
ob: LTBU 301250Z 02015KT CAVOK 29/18 Q1013
cycle: 13

Station Type Date Time Source
LTBU TAF 2022/06/30 12:03 UTC NOAA

TAF LTBU 301040Z 3012/0112 03016KT CAVOK
BECMG 3015/3018 35006KT PROB30
TEMPO 0101/0105 3200 BR SCT012

Example: see airport list